sensor_id;sensor_type;location;lat;lon;timestamp;P1;durP1;ratioP1;P2;durP2;ratioP2
15126;SDS011;7664;52.008;4.748;2023-11-19T00:06:07;15.90;;;5.97;;
15126;SDS011;7664;52.008;4.748;2023-11-19T00:08:37;25.95;;;6.68;;
15126;SDS011;7664;52.008;4.748;2023-11-19T00:11:06;27.23;;;7.78;;
15126;SDS011;7664;52.008;4.748;2023-11-19T00:13:34;25.60;;;6.57;;
15126;SDS011;7664;52.008;4.748;2023-11-19T00:16:03;22.60;;;7.18;;
15126;SDS011;7664;52.008;4.748;2023-11-19T00:18:31;26.42;;;7.57;;
15126;SDS011;7664;52.008;4.748;2023-11-19T00:20:59;22.20;;;7.07;;
15126;SDS011;7664;52.008;4.748;2023-11-19T00:23:29;30.48;;;8.15;;
15126;SDS011;7664;52.008;4.748;2023-11-19T00:25:57;22.67;;;6.30;;
15126;SDS011;7664;52.008;4.748;2023-11-19T00:28:25;29.83;;;7.07;;
15126;SDS011;7664;52.008;4.748;2023-11-19T00:30:54;29.88;;;7.47;;
15126;SDS011;7664;52.008;4.748;2023-11-19T00:33:22;29.13;;;6.85;;
15126;SDS011;7664;52.008;4.748;2023-11-19T00:35:50;18.13;;;6.25;;
15126;SDS011;7664;52.008;4.748;2023-11-19T00:38:18;23.60;;;5.88;;
15126;SDS011;7664;52.008;4.748;2023-11-19T00:40:48;31.05;;;6.40;;
15126;SDS011;7664;52.008;4.748;2023-11-19T00:43:16;27.35;;;6.13;;
15126;SDS011;7664;52.008;4.748;2023-11-19T00:45:45;32.50;;;6.40;;
15126;SDS011;7664;52.008;4.748;2023-11-19T00:48:13;33.33;;;6.68;;
15126;SDS011;7664;52.008;4.748;2023-11-19T00:50:41;24.77;;;6.43;;
15126;SDS011;7664;52.008;4.748;2023-11-19T00:53:10;25.27;;;6.13;;
15126;SDS011;7664;52.008;4.748;2023-11-19T00:55:38;29.65;;;6.60;;
15126;SDS011;7664;52.008;4.748;2023-11-19T00:58:11;19.90;;;5.55;;
15126;SDS011;7664;52.008;4.748;2023-11-19T01:00:39;27.92;;;6.72;;
15126;SDS011;7664;52.008;4.748;2023-11-19T01:03:09;32.78;;;7.43;;
15126;SDS011;7664;52.008;4.748;2023-11-19T01:05:38;23.63;;;6.45;;
15126;SDS011;7664;52.008;4.748;2023-11-19T01:08:06;21.90;;;6.65;;
15126;SDS011;7664;52.008;4.748;2023-11-19T01:10:36;26.35;;;6.78;;
15126;SDS011;7664;52.008;4.748;2023-11-19T01:13:04;19.65;;;4.80;;
15126;SDS011;7664;52.008;4.748;2023-11-19T01:15:34;27.25;;;6.18;;
15126;SDS011;7664;52.008;4.748;2023-11-19T01:18:02;22.58;;;6.43;;
15126;SDS011;7664;52.008;4.748;2023-11-19T01:20:31;27.75;;;6.70;;
15126;SDS011;7664;52.008;4.748;2023-11-19T01:23:00;19.33;;;5.43;;
15126;SDS011;7664;52.008;4.748;2023-11-19T01:25:29;29.15;;;7.18;;
15126;SDS011;7664;52.008;4.748;2023-11-19T01:27:57;18.13;;;5.13;;
15126;SDS011;7664;52.008;4.748;2023-11-19T01:30:25;25.38;;;6.05;;
15126;SDS011;7664;52.008;4.748;2023-11-19T01:32:55;28.55;;;5.82;;
15126;SDS011;7664;52.008;4.748;2023-11-19T01:35:23;30.73;;;6.82;;
15126;SDS011;7664;52.008;4.748;2023-11-19T01:37:53;25.38;;;6.43;;
15126;SDS011;7664;52.008;4.748;2023-11-19T01:40:21;24.83;;;6.43;;
15126;SDS011;7664;52.008;4.748;2023-11-19T01:42:49;33.63;;;6.35;;
15126;SDS011;7664;52.008;4.748;2023-11-19T01:45:21;25.40;;;6.75;;
15126;SDS011;7664;52.008;4.748;2023-11-19T01:47:58;22.45;;;6.18;;
15126;SDS011;7664;52.008;4.748;2023-11-19T01:50:30;32.05;;;7.07;;
15126;SDS011;7664;52.008;4.748;2023-11-19T01:52:59;28.70;;;6.53;;
15126;SDS011;7664;52.008;4.748;2023-11-19T01:55:27;26.10;;;6.38;;
15126;SDS011;7664;52.008;4.748;2023-11-19T01:57:57;29.63;;;6.30;;
15126;SDS011;7664;52.008;4.748;2023-11-19T02:00:28;27.42;;;6.43;;
15126;SDS011;7664;52.008;4.748;2023-11-19T02:03:01;28.70;;;6.32;;
15126;SDS011;7664;52.008;4.748;2023-11-19T02:05:30;26.33;;;6.18;;
15126;SDS011;7664;52.008;4.748;2023-11-19T02:07:59;25.45;;;5.60;;
15126;SDS011;7664;52.008;4.748;2023-11-19T02:10:27;29.83;;;7.03;;
15126;SDS011;7664;52.008;4.748;2023-11-19T02:12:55;31.58;;;5.95;;
15126;SDS011;7664;52.008;4.748;2023-11-19T02:15:32;26.75;;;6.20;;
15126;SDS011;7664;52.008;4.748;2023-11-19T02:18:21;29.65;;;6.25;;
15126;SDS011;7664;52.008;4.748;2023-11-19T02:20:54;26.63;;;6.80;;
15126;SDS011;7664;52.008;4.748;2023-11-19T02:23:22;29.13;;;7.07;;
15126;SDS011;7664;52.008;4.748;2023-11-19T02:25:55;23.27;;;6.85;;
15126;SDS011;7664;52.008;4.748;2023-11-19T02:28:42;31.88;;;7.38;;
15126;SDS011;7664;52.008;4.748;2023-11-19T02:31:11;25.30;;;7.13;;
15126;SDS011;7664;52.008;4.748;2023-11-19T02:33:39;33.95;;;8.02;;
15126;SDS011;7664;52.008;4.748;2023-11-19T02:36:08;37.38;;;7.53;;
15126;SDS011;7664;52.008;4.748;2023-11-19T02:38:37;28.27;;;6.85;;
15126;SDS011;7664;52.008;4.748;2023-11-19T02:41:06;22.35;;;6.57;;
15126;SDS011;7664;52.008;4.748;2023-11-19T02:43:36;28.13;;;7.32;;
15126;SDS011;7664;52.008;4.748;2023-11-19T02:46:07;32.95;;;6.65;;
15126;SDS011;7664;52.008;4.748;2023-11-19T02:48:38;33.78;;;7.68;;
15126;SDS011;7664;52.008;4.748;2023-11-19T02:51:08;32.13;;;7.40;;
15126;SDS011;7664;52.008;4.748;2023-11-19T02:53:37;35.25;;;8.63;;
15126;SDS011;7664;52.008;4.748;2023-11-19T02:56:07;25.88;;;7.03;;
15126;SDS011;7664;52.008;4.748;2023-11-19T02:58:46;32.83;;;6.68;;
15126;SDS011;7664;52.008;4.748;2023-11-19T03:01:22;40.95;;;7.90;;
15126;SDS011;7664;52.008;4.748;2023-11-19T03:03:57;31.17;;;7.10;;
15126;SDS011;7664;52.008;4.748;2023-11-19T03:06:29;28.92;;;6.95;;
15126;SDS011;7664;52.008;4.748;2023-11-19T03:08:57;27.15;;;7.05;;
15126;SDS011;7664;52.008;4.748;2023-11-19T03:11:25;24.50;;;6.07;;
15126;SDS011;7664;52.008;4.748;2023-11-19T03:13:53;30.75;;;6.72;;
15126;SDS011;7664;52.008;4.748;2023-11-19T03:16:22;31.98;;;7.20;;
15126;SDS011;7664;52.008;4.748;2023-11-19T03:18:50;26.20;;;6.68;;
15126;SDS011;7664;52.008;4.748;2023-11-19T03:21:19;27.38;;;8.02;;
15126;SDS011;7664;52.008;4.748;2023-11-19T03:23:47;34.20;;;7.63;;
15126;SDS011;7664;52.008;4.748;2023-11-19T03:26:15;26.63;;;6.43;;
15126;SDS011;7664;52.008;4.748;2023-11-19T03:28:44;30.85;;;7.40;;
15126;SDS011;7664;52.008;4.748;2023-11-19T03:31:12;23.13;;;5.50;;
15126;SDS011;7664;52.008;4.748;2023-11-19T03:33:42;28.25;;;5.72;;
15126;SDS011;7664;52.008;4.748;2023-11-19T03:36:10;22.50;;;6.43;;
15126;SDS011;7664;52.008;4.748;2023-11-19T03:38:39;26.05;;;6.88;;
15126;SDS011;7664;52.008;4.748;2023-11-19T03:41:12;32.08;;;7.30;;
15126;SDS011;7664;52.008;4.748;2023-11-19T03:43:40;33.40;;;6.50;;
15126;SDS011;7664;52.008;4.748;2023-11-19T03:46:18;24.27;;;6.40;;
15126;SDS011;7664;52.008;4.748;2023-11-19T03:48:49;32.92;;;7.22;;
15126;SDS011;7664;52.008;4.748;2023-11-19T03:51:17;32.22;;;6.47;;
15126;SDS011;7664;52.008;4.748;2023-11-19T03:53:46;33.85;;;7.30;;
15126;SDS011;7664;52.008;4.748;2023-11-19T03:56:14;34.05;;;7.20;;
15126;SDS011;7664;52.008;4.748;2023-11-19T03:58:42;26.65;;;6.72;;
15126;SDS011;7664;52.008;4.748;2023-11-19T04:01:13;32.20;;;6.50;;
15126;SDS011;7664;52.008;4.748;2023-11-19T04:03:41;30.85;;;7.68;;
15126;SDS011;7664;52.008;4.748;2023-11-19T04:06:13;34.17;;;7.10;;
15126;SDS011;7664;52.008;4.748;2023-11-19T04:08:41;38.08;;;7.65;;
15126;SDS011;7664;52.008;4.748;2023-11-19T04:11:10;28.55;;;7.10;;
15126;SDS011;7664;52.008;4.748;2023-11-19T04:13:38;25.30;;;6.18;;
15126;SDS011;7664;52.008;4.748;2023-11-19T04:16:06;40.63;;;8.05;;
15126;SDS011;7664;52.008;4.748;2023-11-19T04:18:36;29.77;;;6.13;;
15126;SDS011;7664;52.008;4.748;2023-11-19T04:21:05;29.52;;;6.32;;
15126;SDS011;7664;52.008;4.748;2023-11-19T04:23:35;34.70;;;7.68;;
15126;SDS011;7664;52.008;4.748;2023-11-19T04:26:04;34.03;;;7.75;;
15126;SDS011;7664;52.008;4.748;2023-11-19T04:28:35;26.67;;;6.63;;
15126;SDS011;7664;52.008;4.748;2023-11-19T04:31:04;29.90;;;6.50;;
15126;SDS011;7664;52.008;4.748;2023-11-19T04:33:32;34.15;;;7.95;;
15126;SDS011;7664;52.008;4.748;2023-11-19T04:36:00;28.52;;;7.25;;
15126;SDS011;7664;52.008;4.748;2023-11-19T04:38:29;26.60;;;7.45;;
15126;SDS011;7664;52.008;4.748;2023-11-19T04:40:59;29.38;;;6.10;;
15126;SDS011;7664;52.008;4.748;2023-11-19T04:43:27;31.85;;;6.65;;
15126;SDS011;7664;52.008;4.748;2023-11-19T04:45:55;29.23;;;7.20;;
15126;SDS011;7664;52.008;4.748;2023-11-19T04:48:23;33.38;;;6.90;;
15126;SDS011;7664;52.008;4.748;2023-11-19T04:50:51;30.15;;;7.32;;
15126;SDS011;7664;52.008;4.748;2023-11-19T04:53:19;25.77;;;6.68;;
15126;SDS011;7664;52.008;4.748;2023-11-19T04:55:47;29.30;;;6.57;;
15126;SDS011;7664;52.008;4.748;2023-11-19T04:58:17;28.65;;;6.22;;
15126;SDS011;7664;52.008;4.748;2023-11-19T05:00:45;36.17;;;7.18;;
15126;SDS011;7664;52.008;4.748;2023-11-19T05:03:13;30.55;;;6.47;;
15126;SDS011;7664;52.008;4.748;2023-11-19T05:05:42;31.30;;;7.47;;
15126;SDS011;7664;52.008;4.748;2023-11-19T05:08:10;27.92;;;7.35;;
15126;SDS011;7664;52.008;4.748;2023-11-19T05:10:38;28.17;;;6.88;;
15126;SDS011;7664;52.008;4.748;2023-11-19T05:13:07;28.15;;;5.82;;
15126;SDS011;7664;52.008;4.748;2023-11-19T05:15:38;26.52;;;6.82;;
15126;SDS011;7664;52.008;4.748;2023-11-19T05:18:06;24.90;;;6.82;;
15126;SDS011;7664;52.008;4.748;2023-11-19T05:20:35;31.98;;;6.32;;
15126;SDS011;7664;52.008;4.748;2023-11-19T05:23:03;38.10;;;7.45;;
15126;SDS011;7664;52.008;4.748;2023-11-19T05:25:31;24.70;;;6.38;;
15126;SDS011;7664;52.008;4.748;2023-11-19T05:27:59;24.23;;;6.32;;
15126;SDS011;7664;52.008;4.748;2023-11-19T05:30:27;30.33;;;6.95;;
15126;SDS011;7664;52.008;4.748;2023-11-19T05:32:56;32.78;;;6.95;;
15126;SDS011;7664;52.008;4.748;2023-11-19T05:35:25;30.65;;;7.15;;
15126;SDS011;7664;52.008;4.748;2023-11-19T05:37:53;29.08;;;7.18;;
15126;SDS011;7664;52.008;4.748;2023-11-19T05:40:22;29.35;;;7.47;;
15126;SDS011;7664;52.008;4.748;2023-11-19T05:42:50;23.42;;;7.38;;
15126;SDS011;7664;52.008;4.748;2023-11-19T05:45:18;39.05;;;7.40;;
15126;SDS011;7664;52.008;4.748;2023-11-19T05:47:46;31.25;;;6.45;;
15126;SDS011;7664;52.008;4.748;2023-11-19T05:50:16;32.92;;;7.30;;
15126;SDS011;7664;52.008;4.748;2023-11-19T05:52:44;32.53;;;8.05;;
15126;SDS011;7664;52.008;4.748;2023-11-19T05:55:12;29.20;;;7.00;;
15126;SDS011;7664;52.008;4.748;2023-11-19T05:57:40;36.65;;;7.22;;
15126;SDS011;7664;52.008;4.748;2023-11-19T06:00:12;27.42;;;7.38;;
15126;SDS011;7664;52.008;4.748;2023-11-19T06:02:42;32.13;;;7.45;;
15126;SDS011;7664;52.008;4.748;2023-11-19T06:05:10;25.73;;;5.75;;
15126;SDS011;7664;52.008;4.748;2023-11-19T06:07:40;30.85;;;6.60;;
15126;SDS011;7664;52.008;4.748;2023-11-19T06:10:08;24.17;;;6.32;;
15126;SDS011;7664;52.008;4.748;2023-11-19T06:12:37;25.58;;;6.05;;
15126;SDS011;7664;52.008;4.748;2023-11-19T06:15:08;26.55;;;6.78;;
15126;SDS011;7664;52.008;4.748;2023-11-19T06:17:39;29.63;;;6.57;;
15126;SDS011;7664;52.008;4.748;2023-11-19T06:20:08;31.95;;;6.53;;
15126;SDS011;7664;52.008;4.748;2023-11-19T06:22:39;28.23;;;6.28;;
15126;SDS011;7664;52.008;4.748;2023-11-19T06:25:08;28.30;;;6.68;;
15126;SDS011;7664;52.008;4.748;2023-11-19T06:27:38;27.55;;;6.88;;
15126;SDS011;7664;52.008;4.748;2023-11-19T06:30:07;30.45;;;6.75;;
15126;SDS011;7664;52.008;4.748;2023-11-19T06:32:36;27.08;;;6.72;;
15126;SDS011;7664;52.008;4.748;2023-11-19T06:35:05;25.70;;;6.00;;
15126;SDS011;7664;52.008;4.748;2023-11-19T06:37:33;27.63;;;6.55;;
15126;SDS011;7664;52.008;4.748;2023-11-19T06:40:03;25.30;;;5.38;;
15126;SDS011;7664;52.008;4.748;2023-11-19T06:42:33;25.20;;;5.57;;
15126;SDS011;7664;52.008;4.748;2023-11-19T06:45:01;23.52;;;6.10;;
15126;SDS011;7664;52.008;4.748;2023-11-19T06:47:29;29.13;;;7.38;;
15126;SDS011;7664;52.008;4.748;2023-11-19T06:49:58;27.17;;;5.82;;
15126;SDS011;7664;52.008;4.748;2023-11-19T06:52:26;23.23;;;6.05;;
15126;SDS011;7664;52.008;4.748;2023-11-19T06:54:54;33.28;;;6.60;;
15126;SDS011;7664;52.008;4.748;2023-11-19T06:57:35;22.05;;;5.63;;
15126;SDS011;7664;52.008;4.748;2023-11-19T07:00:04;23.65;;;6.40;;
15126;SDS011;7664;52.008;4.748;2023-11-19T07:02:33;26.55;;;6.13;;
15126;SDS011;7664;52.008;4.748;2023-11-19T07:05:01;25.85;;;6.45;;
15126;SDS011;7664;52.008;4.748;2023-11-19T07:07:31;29.95;;;5.75;;
15126;SDS011;7664;52.008;4.748;2023-11-19T07:09:59;25.30;;;5.80;;
15126;SDS011;7664;52.008;4.748;2023-11-19T07:12:28;32.10;;;7.57;;
15126;SDS011;7664;52.008;4.748;2023-11-19T07:14:57;27.73;;;5.97;;
15126;SDS011;7664;52.008;4.748;2023-11-19T07:17:26;27.38;;;7.28;;
15126;SDS011;7664;52.008;4.748;2023-11-19T07:19:54;34.50;;;7.00;;
15126;SDS011;7664;52.008;4.748;2023-11-19T07:22:26;27.27;;;6.30;;
15126;SDS011;7664;52.008;4.748;2023-11-19T07:24:56;31.05;;;6.72;;
15126;SDS011;7664;52.008;4.748;2023-11-19T07:27:25;29.02;;;6.63;;
15126;SDS011;7664;52.008;4.748;2023-11-19T07:29:54;34.90;;;6.47;;
15126;SDS011;7664;52.008;4.748;2023-11-19T07:32:23;31.45;;;6.28;;
15126;SDS011;7664;52.008;4.748;2023-11-19T07:34:52;33.20;;;6.53;;
15126;SDS011;7664;52.008;4.748;2023-11-19T07:37:20;28.02;;;6.28;;
15126;SDS011;7664;52.008;4.748;2023-11-19T07:39:48;31.25;;;6.82;;
15126;SDS011;7664;52.008;4.748;2023-11-19T07:42:16;26.35;;;6.68;;
15126;SDS011;7664;52.008;4.748;2023-11-19T07:44:44;23.02;;;6.90;;
15126;SDS011;7664;52.008;4.748;2023-11-19T07:47:13;33.75;;;7.60;;
15126;SDS011;7664;52.008;4.748;2023-11-19T07:49:42;27.13;;;6.90;;
15126;SDS011;7664;52.008;4.748;2023-11-19T07:52:11;27.55;;;5.63;;
15126;SDS011;7664;52.008;4.748;2023-11-19T07:54:42;39.38;;;7.15;;
15126;SDS011;7664;52.008;4.748;2023-11-19T07:57:10;38.50;;;7.65;;
15126;SDS011;7664;52.008;4.748;2023-11-19T07:59:38;31.10;;;6.85;;
15126;SDS011;7664;52.008;4.748;2023-11-19T08:02:07;32.63;;;7.40;;
15126;SDS011;7664;52.008;4.748;2023-11-19T08:04:37;35.05;;;7.50;;
15126;SDS011;7664;52.008;4.748;2023-11-19T08:07:12;26.35;;;5.75;;
15126;SDS011;7664;52.008;4.748;2023-11-19T08:09:40;30.13;;;6.30;;
15126;SDS011;7664;52.008;4.748;2023-11-19T08:12:08;23.73;;;6.05;;
15126;SDS011;7664;52.008;4.748;2023-11-19T08:14:37;31.83;;;6.22;;
15126;SDS011;7664;52.008;4.748;2023-11-19T08:17:06;30.63;;;6.53;;
15126;SDS011;7664;52.008;4.748;2023-11-19T08:19:34;35.10;;;7.55;;
15126;SDS011;7664;52.008;4.748;2023-11-19T08:22:02;27.95;;;7.75;;
15126;SDS011;7664;52.008;4.748;2023-11-19T08:24:31;25.67;;;6.32;;
15126;SDS011;7664;52.008;4.748;2023-11-19T08:26:59;24.25;;;6.03;;
15126;SDS011;7664;52.008;4.748;2023-11-19T08:29:28;20.10;;;6.10;;
15126;SDS011;7664;52.008;4.748;2023-11-19T08:31:56;22.90;;;6.00;;
15126;SDS011;7664;52.008;4.748;2023-11-19T08:34:27;29.80;;;5.90;;
15126;SDS011;7664;52.008;4.748;2023-11-19T08:36:55;30.08;;;7.22;;
15126;SDS011;7664;52.008;4.748;2023-11-19T08:39:24;30.75;;;6.45;;
15126;SDS011;7664;52.008;4.748;2023-11-19T08:41:53;34.92;;;6.63;;
15126;SDS011;7664;52.008;4.748;2023-11-19T08:44:21;29.73;;;7.88;;
15126;SDS011;7664;52.008;4.748;2023-11-19T08:46:50;26.08;;;6.78;;
15126;SDS011;7664;52.008;4.748;2023-11-19T08:49:18;27.08;;;6.95;;
15126;SDS011;7664;52.008;4.748;2023-11-19T08:51:46;31.50;;;6.60;;
15126;SDS011;7664;52.008;4.748;2023-11-19T08:54:14;33.38;;;7.00;;
15126;SDS011;7664;52.008;4.748;2023-11-19T08:56:42;33.50;;;6.60;;
15126;SDS011;7664;52.008;4.748;2023-11-19T08:59:11;34.08;;;6.40;;
15126;SDS011;7664;52.008;4.748;2023-11-19T09:01:42;30.27;;;6.18;;
15126;SDS011;7664;52.008;4.748;2023-11-19T09:04:10;32.42;;;6.78;;
15126;SDS011;7664;52.008;4.748;2023-11-19T09:06:38;31.08;;;6.95;;
15126;SDS011;7664;52.008;4.748;2023-11-19T09:09:07;31.85;;;7.13;;
15126;SDS011;7664;52.008;4.748;2023-11-19T09:11:36;25.40;;;5.97;;
15126;SDS011;7664;52.008;4.748;2023-11-19T09:14:04;25.75;;;5.35;;
15126;SDS011;7664;52.008;4.748;2023-11-19T09:16:34;29.58;;;5.35;;
15126;SDS011;7664;52.008;4.748;2023-11-19T09:19:02;30.90;;;7.38;;
15126;SDS011;7664;52.008;4.748;2023-11-19T09:21:32;27.88;;;6.22;;
15126;SDS011;7664;52.008;4.748;2023-11-19T09:24:04;25.50;;;6.25;;
15126;SDS011;7664;52.008;4.748;2023-11-19T09:26:34;35.47;;;6.18;;
15126;SDS011;7664;52.008;4.748;2023-11-19T09:29:02;26.02;;;6.20;;
15126;SDS011;7664;52.008;4.748;2023-11-19T09:31:30;34.47;;;6.65;;
15126;SDS011;7664;52.008;4.748;2023-11-19T09:34:00;21.65;;;4.95;;
15126;SDS011;7664;52.008;4.748;2023-11-19T09:36:29;26.80;;;6.70;;
15126;SDS011;7664;52.008;4.748;2023-11-19T09:38:56;31.02;;;6.57;;
15126;SDS011;7664;52.008;4.748;2023-11-19T09:41:26;33.50;;;7.32;;
15126;SDS011;7664;52.008;4.748;2023-11-19T09:43:55;30.08;;;6.97;;
15126;SDS011;7664;52.008;4.748;2023-11-19T09:46:23;28.33;;;7.18;;
15126;SDS011;7664;52.008;4.748;2023-11-19T09:48:52;28.88;;;6.43;;
15126;SDS011;7664;52.008;4.748;2023-11-19T09:51:23;27.17;;;6.18;;
15126;SDS011;7664;52.008;4.748;2023-11-19T09:53:51;31.27;;;6.25;;
15126;SDS011;7664;52.008;4.748;2023-11-19T09:56:19;21.52;;;6.13;;
15126;SDS011;7664;52.008;4.748;2023-11-19T09:58:48;25.90;;;6.72;;
15126;SDS011;7664;52.008;4.748;2023-11-19T10:01:17;29.27;;;6.45;;
15126;SDS011;7664;52.008;4.748;2023-11-19T10:03:54;25.40;;;6.80;;
15126;SDS011;7664;52.008;4.748;2023-11-19T10:06:25;24.40;;;6.53;;
15126;SDS011;7664;52.008;4.748;2023-11-19T10:08:54;21.80;;;5.97;;
15126;SDS011;7664;52.008;4.748;2023-11-19T10:11:22;23.33;;;5.47;;
15126;SDS011;7664;52.008;4.748;2023-11-19T10:13:51;37.05;;;6.07;;
15126;SDS011;7664;52.008;4.748;2023-11-19T10:16:20;22.67;;;5.43;;
15126;SDS011;7664;52.008;4.748;2023-11-19T10:18:55;28.48;;;6.38;;
15126;SDS011;7664;52.008;4.748;2023-11-19T10:21:23;24.52;;;5.60;;
15126;SDS011;7664;52.008;4.748;2023-11-19T10:23:54;30.95;;;6.80;;
15126;SDS011;7664;52.008;4.748;2023-11-19T10:26:26;21.58;;;4.75;;
15126;SDS011;7664;52.008;4.748;2023-11-19T10:28:55;20.25;;;4.95;;
15126;SDS011;7664;52.008;4.748;2023-11-19T10:31:23;22.88;;;4.72;;
15126;SDS011;7664;52.008;4.748;2023-11-19T10:33:52;15.25;;;5.40;;
15126;SDS011;7664;52.008;4.748;2023-11-19T10:36:21;21.55;;;5.47;;
15126;SDS011;7664;52.008;4.748;2023-11-19T10:38:55;28.35;;;6.20;;
15126;SDS011;7664;52.008;4.748;2023-11-19T10:41:28;23.55;;;4.78;;
15126;SDS011;7664;52.008;4.748;2023-11-19T10:43:57;21.98;;;5.13;;
15126;SDS011;7664;52.008;4.748;2023-11-19T10:46:36;16.38;;;4.70;;
15126;SDS011;7664;52.008;4.748;2023-11-19T10:49:06;26.98;;;5.70;;
15126;SDS011;7664;52.008;4.748;2023-11-19T10:51:35;20.85;;;5.30;;
15126;SDS011;7664;52.008;4.748;2023-11-19T10:54:05;27.70;;;6.03;;
15126;SDS011;7664;52.008;4.748;2023-11-19T10:56:34;21.08;;;5.20;;
15126;SDS011;7664;52.008;4.748;2023-11-19T10:59:03;23.17;;;5.47;;
15126;SDS011;7664;52.008;4.748;2023-11-19T11:01:49;22.80;;;4.25;;
15126;SDS011;7664;52.008;4.748;2023-11-19T11:04:22;17.95;;;5.38;;
15126;SDS011;7664;52.008;4.748;2023-11-19T11:06:52;18.52;;;4.72;;
15126;SDS011;7664;52.008;4.748;2023-11-19T11:09:23;21.55;;;5.78;;
15126;SDS011;7664;52.008;4.748;2023-11-19T11:11:53;26.83;;;6.25;;
15126;SDS011;7664;52.008;4.748;2023-11-19T11:14:23;24.70;;;6.15;;
15126;SDS011;7664;52.008;4.748;2023-11-19T11:16:53;32.75;;;6.00;;
15126;SDS011;7664;52.008;4.748;2023-11-19T11:19:23;26.92;;;6.55;;
15126;SDS011;7664;52.008;4.748;2023-11-19T11:21:52;27.60;;;5.78;;
15126;SDS011;7664;52.008;4.748;2023-11-19T11:24:27;29.20;;;5.78;;
15126;SDS011;7664;52.008;4.748;2023-11-19T11:27:21;20.85;;;6.03;;
15126;SDS011;7664;52.008;4.748;2023-11-19T11:30:07;30.35;;;6.28;;
15126;SDS011;7664;52.008;4.748;2023-11-19T11:32:43;19.30;;;5.30;;
15126;SDS011;7664;52.008;4.748;2023-11-19T11:35:24;26.15;;;5.25;;
15126;SDS011;7664;52.008;4.748;2023-11-19T11:38:00;26.05;;;5.30;;
15126;SDS011;7664;52.008;4.748;2023-11-19T11:40:32;20.30;;;5.68;;
15126;SDS011;7664;52.008;4.748;2023-11-19T11:43:00;23.38;;;4.88;;
15126;SDS011;7664;52.008;4.748;2023-11-19T11:45:35;22.77;;;5.60;;
15126;SDS011;7664;52.008;4.748;2023-11-19T11:48:08;22.15;;;5.47;;
15126;SDS011;7664;52.008;4.748;2023-11-19T11:50:48;27.20;;;4.97;;
15126;SDS011;7664;52.008;4.748;2023-11-19T11:53:18;25.42;;;5.68;;
15126;SDS011;7664;52.008;4.748;2023-11-19T11:55:58;19.15;;;4.53;;
15126;SDS011;7664;52.008;4.748;2023-11-19T11:58:29;19.52;;;5.25;;
15126;SDS011;7664;52.008;4.748;2023-11-19T12:01:01;25.85;;;5.63;;
15126;SDS011;7664;52.008;4.748;2023-11-19T12:03:32;17.52;;;4.90;;
15126;SDS011;7664;52.008;4.748;2023-11-19T12:06:01;19.48;;;4.95;;
15126;SDS011;7664;52.008;4.748;2023-11-19T12:08:29;21.40;;;4.53;;
15126;SDS011;7664;52.008;4.748;2023-11-19T12:11:00;15.23;;;4.05;;
15126;SDS011;7664;52.008;4.748;2023-11-19T12:13:45;19.45;;;4.18;;
15126;SDS011;7664;52.008;4.748;2023-11-19T12:16:15;19.05;;;4.15;;
15126;SDS011;7664;52.008;4.748;2023-11-19T12:18:43;23.63;;;4.32;;
15126;SDS011;7664;52.008;4.748;2023-11-19T12:21:12;15.60;;;4.28;;
15126;SDS011;7664;52.008;4.748;2023-11-19T12:23:57;22.63;;;4.30;;
15126;SDS011;7664;52.008;4.748;2023-11-19T12:26:32;19.40;;;4.13;;
15126;SDS011;7664;52.008;4.748;2023-11-19T12:29:01;23.38;;;4.30;;
15126;SDS011;7664;52.008;4.748;2023-11-19T12:31:35;14.35;;;3.75;;
15126;SDS011;7664;52.008;4.748;2023-11-19T12:34:09;20.67;;;4.88;;
15126;SDS011;7664;52.008;4.748;2023-11-19T12:36:39;27.02;;;5.43;;
15126;SDS011;7664;52.008;4.748;2023-11-19T12:39:09;19.73;;;4.57;;
15126;SDS011;7664;52.008;4.748;2023-11-19T12:41:54;22.52;;;4.85;;
15126;SDS011;7664;52.008;4.748;2023-11-19T12:44:25;15.25;;;3.95;;
15126;SDS011;7664;52.008;4.748;2023-11-19T12:47:03;24.33;;;4.63;;
15126;SDS011;7664;52.008;4.748;2023-11-19T12:49:33;23.05;;;4.93;;
15126;SDS011;7664;52.008;4.748;2023-11-19T12:52:01;28.17;;;5.63;;
15126;SDS011;7664;52.008;4.748;2023-11-19T12:54:39;18.63;;;4.68;;
15126;SDS011;7664;52.008;4.748;2023-11-19T12:57:09;30.65;;;5.35;;
15126;SDS011;7664;52.008;4.748;2023-11-19T12:59:40;24.65;;;5.68;;
15126;SDS011;7664;52.008;4.748;2023-11-19T13:02:09;18.05;;;5.05;;
15126;SDS011;7664;52.008;4.748;2023-11-19T13:04:37;23.10;;;5.63;;
15126;SDS011;7664;52.008;4.748;2023-11-19T13:07:06;27.52;;;5.50;;
15126;SDS011;7664;52.008;4.748;2023-11-19T13:09:34;26.65;;;4.85;;
15126;SDS011;7664;52.008;4.748;2023-11-19T13:12:11;24.10;;;5.20;;
15126;SDS011;7664;52.008;4.748;2023-11-19T13:14:41;19.88;;;4.75;;
15126;SDS011;7664;52.008;4.748;2023-11-19T13:17:14;21.00;;;4.95;;
15126;SDS011;7664;52.008;4.748;2023-11-19T13:19:42;21.65;;;5.32;;
15126;SDS011;7664;52.008;4.748;2023-11-19T13:22:10;23.13;;;5.43;;
15126;SDS011;7664;52.008;4.748;2023-11-19T13:24:38;24.40;;;4.95;;
15126;SDS011;7664;52.008;4.748;2023-11-19T13:27:07;20.20;;;5.13;;
15126;SDS011;7664;52.008;4.748;2023-11-19T13:29:36;18.65;;;4.90;;
15126;SDS011;7664;52.008;4.748;2023-11-19T13:32:05;23.00;;;5.85;;
15126;SDS011;7664;52.008;4.748;2023-11-19T13:34:33;21.02;;;4.47;;
15126;SDS011;7664;52.008;4.748;2023-11-19T13:37:01;15.15;;;4.15;;
15126;SDS011;7664;52.008;4.748;2023-11-19T13:39:29;21.85;;;4.68;;
15126;SDS011;7664;52.008;4.748;2023-11-19T13:41:57;24.83;;;6.15;;
15126;SDS011;7664;52.008;4.748;2023-11-19T13:44:29;16.00;;;4.07;;
15126;SDS011;7664;52.008;4.748;2023-11-19T13:46:58;20.55;;;4.80;;
15126;SDS011;7664;52.008;4.748;2023-11-19T13:49:26;14.73;;;4.55;;
15126;SDS011;7664;52.008;4.748;2023-11-19T13:51:54;21.60;;;5.53;;
15126;SDS011;7664;52.008;4.748;2023-11-19T13:54:22;18.92;;;3.75;;
15126;SDS011;7664;52.008;4.748;2023-11-19T13:56:51;21.30;;;4.72;;
15126;SDS011;7664;52.008;4.748;2023-11-19T13:59:24;20.33;;;5.10;;
15126;SDS011;7664;52.008;4.748;2023-11-19T14:01:52;17.83;;;4.65;;
15126;SDS011;7664;52.008;4.748;2023-11-19T14:04:21;23.58;;;5.30;;
15126;SDS011;7664;52.008;4.748;2023-11-19T14:06:49;15.95;;;4.57;;
15126;SDS011;7664;52.008;4.748;2023-11-19T14:09:17;24.90;;;5.55;;
15126;SDS011;7664;52.008;4.748;2023-11-19T14:11:45;22.90;;;5.15;;
15126;SDS011;7664;52.008;4.748;2023-11-19T14:14:14;22.20;;;4.88;;
15126;SDS011;7664;52.008;4.748;2023-11-19T14:16:43;20.30;;;4.95;;
15126;SDS011;7664;52.008;4.748;2023-11-19T14:19:11;19.77;;;5.63;;
15126;SDS011;7664;52.008;4.748;2023-11-19T14:21:41;27.98;;;5.50;;
15126;SDS011;7664;52.008;4.748;2023-11-19T14:24:11;16.38;;;4.25;;
15126;SDS011;7664;52.008;4.748;2023-11-19T14:26:39;23.67;;;5.30;;
15126;SDS011;7664;52.008;4.748;2023-11-19T14:29:07;20.98;;;5.43;;
15126;SDS011;7664;52.008;4.748;2023-11-19T14:31:36;21.80;;;5.57;;
15126;SDS011;7664;52.008;4.748;2023-11-19T14:34:04;24.42;;;4.90;;
15126;SDS011;7664;52.008;4.748;2023-11-19T14:36:32;28.13;;;5.95;;
15126;SDS011;7664;52.008;4.748;2023-11-19T14:39:01;18.58;;;5.50;;
15126;SDS011;7664;52.008;4.748;2023-11-19T14:41:30;18.05;;;5.07;;
15126;SDS011;7664;52.008;4.748;2023-11-19T14:43:58;18.15;;;4.72;;
15126;SDS011;7664;52.008;4.748;2023-11-19T14:46:27;32.05;;;6.18;;
15126;SDS011;7664;52.008;4.748;2023-11-19T14:48:55;22.05;;;4.82;;
15126;SDS011;7664;52.008;4.748;2023-11-19T14:51:23;25.35;;;5.20;;
15126;SDS011;7664;52.008;4.748;2023-11-19T14:53:51;14.30;;;3.85;;
15126;SDS011;7664;52.008;4.748;2023-11-19T14:56:21;21.55;;;4.88;;
15126;SDS011;7664;52.008;4.748;2023-11-19T14:58:49;22.63;;;4.82;;
15126;SDS011;7664;52.008;4.748;2023-11-19T15:01:17;26.05;;;5.45;;
15126;SDS011;7664;52.008;4.748;2023-11-19T15:03:45;19.27;;;4.35;;
15126;SDS011;7664;52.008;4.748;2023-11-19T15:06:16;18.95;;;5.72;;
15126;SDS011;7664;52.008;4.748;2023-11-19T15:08:44;18.50;;;5.28;;